createdAt,value
2023-05-12T00:00:22.976Z,935.12
2023-05-12T00:00:51.098Z,935.12
2023-05-12T00:01:22.594Z,935.01
2023-05-12T00:01:53.155Z,935.01
2023-05-12T00:02:25.180Z,935.12
2023-05-12T00:02:55.328Z,935.12
2023-05-12T00:03:26.745Z,935.01
2023-05-12T00:03:57.742Z,935.01
2023-05-12T00:04:28.465Z,935.12
2023-05-12T00:04:59.478Z,935.12
2023-05-12T00:05:30.081Z,935.32
2023-05-12T00:06:00.988Z,935.32
2023-05-12T00:06:32.298Z,935.22
2023-05-12T00:07:03.083Z,935.22
2023-05-12T00:07:35.484Z,935.01
2023-05-12T00:08:05.782Z,935.01
2023-05-12T00:08:35.993Z,935.01
2023-05-12T00:09:07.354Z,935.01
2023-05-12T00:09:38.116Z,935.12
2023-05-12T00:10:09.302Z,935.01
2023-05-12T00:10:40.072Z,935.01
2023-05-12T00:11:11.100Z,934.91
2023-05-12T00:11:42.086Z,934.91
2023-05-12T00:12:13.128Z,935.12
2023-05-12T00:12:45.260Z,935.12
2023-05-12T00:13:14.945Z,935.01
2023-05-12T00:13:45.892Z,935.01
2023-05-12T00:14:16.734Z,934.91
2023-05-12T00:14:47.904Z,934.91
2023-05-12T00:15:21.990Z,935.01
2023-05-12T00:15:50.033Z,935.01
2023-05-12T00:16:21.185Z,935.12
2023-05-12T00:16:52.032Z,935.12
2023-05-12T00:17:22.874Z,934.81
2023-05-12T00:17:55.336Z,934.81
2023-05-12T00:18:25.157Z,934.91
2023-05-12T00:18:56.271Z,934.91
2023-05-12T00:19:26.994Z,935.01
2023-05-12T00:19:58.053Z,935.01
2023-05-12T00:20:29.053Z,935.01
2023-05-12T00:21:00.176Z,935.01
2023-05-12T00:21:31.164Z,935.12
2023-05-12T00:22:02.025Z,935.12
2023-05-12T00:22:32.868Z,935.12
2023-05-12T00:23:05.384Z,935.12
2023-05-12T00:23:35.042Z,934.91
2023-05-12T00:24:05.768Z,934.91
2023-05-12T00:24:37.007Z,935.01
2023-05-12T00:25:08.053Z,935.01
2023-05-12T00:25:38.865Z,935.01
2023-05-12T00:26:10.100Z,935.01
2023-05-12T00:26:41.158Z,935.01
2023-05-12T00:27:11.912Z,934.71
2023-05-12T00:27:42.993Z,934.71
2023-05-12T00:28:14.728Z,935.01
2023-05-12T00:28:45.204Z,935.01
2023-05-12T00:29:15.976Z,934.91
2023-05-12T00:29:46.785Z,934.91
2023-05-12T00:30:21.080Z,934.61
2023-05-12T00:30:49.058Z,934.61
2023-05-12T00:31:20.475Z,935.01
2023-05-12T00:31:51.552Z,935.01
2023-05-12T00:32:22.515Z,934.71
2023-05-12T00:32:53.492Z,934.71
2023-05-12T00:33:25.174Z,934.81
2023-05-12T00:33:55.373Z,934.81
2023-05-12T00:34:26.611Z,934.81
2023-05-12T00:34:57.025Z,934.81
2023-05-12T00:35:28.347Z,934.81
2023-05-12T00:35:59.017Z,934.81
2023-05-12T00:36:29.981Z,934.91
2023-05-12T00:37:01.019Z,934.91
2023-05-12T00:37:31.926Z,934.71
2023-05-12T00:38:03.009Z,934.71
2023-05-12T00:38:35.012Z,934.81
2023-05-12T00:39:05.270Z,934.81
2023-05-12T00:39:36.087Z,934.91
2023-05-12T00:40:07.199Z,934.91
2023-05-12T00:41:04.260Z,934.81
2023-05-12T00:41:40.667Z,934.81
2023-05-12T00:42:11.313Z,934.81
2023-05-12T00:42:42.260Z,934.81
2023-05-12T00:43:13.701Z,934.81
2023-05-12T00:43:45.384Z,934.81
2023-05-12T00:44:15.291Z,934.71
2023-05-12T00:44:46.495Z,934.71
2023-05-12T00:45:20.359Z,934.71
2023-05-12T00:45:48.036Z,934.71
2023-05-12T00:46:19.202Z,934.91
2023-05-12T00:46:50.007Z,934.91
2023-05-12T00:47:21.197Z,934.61
2023-05-12T00:47:53.982Z,934.61
2023-05-12T00:48:23.441Z,934.61
2023-05-12T00:48:55.425Z,934.61
2023-05-12T00:49:25.533Z,934.81
2023-05-12T00:49:56.580Z,934.81
2023-05-12T00:50:27.277Z,934.71
2023-05-12T00:50:57.987Z,934.71
2023-05-12T00:51:29.604Z,934.81
2023-05-12T00:52:00.770Z,934.81
2023-05-12T00:52:31.143Z,934.81
2023-05-12T00:53:02.241Z,934.81
2023-05-12T00:53:47.732Z,934.81
2023-05-12T00:54:05.156Z,934.81
2023-05-12T00:54:35.739Z,934.91
2023-05-12T00:55:06.004Z,934.91
2023-05-12T00:55:37.280Z,934.71
2023-05-12T00:56:08.255Z,934.81
2023-05-12T00:56:39.713Z,934.81
2023-05-12T00:57:10.487Z,934.91
2023-05-12T00:57:41.277Z,934.91
2023-05-12T00:58:12.533Z,934.91
2023-05-12T00:58:43.159Z,934.91
2023-05-12T00:59:15.697Z,934.71
2023-05-12T00:59:45.363Z,934.71
2023-05-12T01:00:20.915Z,934.71
2023-05-12T01:00:48.260Z,934.71
2023-05-12T01:01:18.730Z,934.91
2023-05-12T01:01:49.310Z,934.91
2023-05-12T01:02:20.288Z,934.71
2023-05-12T01:02:51.670Z,934.71
2023-05-12T01:03:22.478Z,934.71
2023-05-12T01:03:53.479Z,934.71
2023-05-12T01:04:25.418Z,934.51
2023-05-12T01:04:55.205Z,934.51
2023-05-12T01:05:26.398Z,934.81
2023-05-12T01:05:57.450Z,934.81
2023-05-12T01:06:28.312Z,934.51
2023-05-12T01:06:59.393Z,934.51
2023-05-12T01:07:31.382Z,934.81
2023-05-12T01:08:01.217Z,934.81
2023-05-12T01:08:32.507Z,934.71
2023-05-12T01:09:02.966Z,934.71
2023-05-12T01:09:35.782Z,934.81
2023-05-12T01:10:05.445Z,934.81
2023-05-12T01:10:36.078Z,934.71
2023-05-12T01:11:07.370Z,934.71
2023-05-12T01:11:38.467Z,934.71
2023-05-12T01:12:14.869Z,934.61
2023-05-12T01:12:40.409Z,934.61
2023-05-12T01:13:11.279Z,934.61
2023-05-12T01:13:42.533Z,934.61
2023-05-12T01:14:13.063Z,934.81
2023-05-12T01:14:45.350Z,934.81
2023-05-12T01:15:17.872Z,934.81
2023-05-12T01:15:46.330Z,934.81
2023-05-12T01:16:17.220Z,934.71
2023-05-12T01:16:48.163Z,934.71
2023-05-12T01:17:19.413Z,934.51
2023-05-12T01:17:50.626Z,934.51
2023-05-12T01:18:21.862Z,934.71
2023-05-12T01:18:52.319Z,934.71
2023-05-12T01:19:23.481Z,934.81
2023-05-12T01:19:57.690Z,934.81
2023-05-12T01:20:25.465Z,934.71
2023-05-12T01:20:56.540Z,934.71
2023-05-12T01:21:27.291Z,934.71
2023-05-12T01:21:58.384Z,934.71
2023-05-12T01:22:29.352Z,934.44
2023-05-12T01:23:00.428Z,934.44
2023-05-12T01:23:31.281Z,934.61
2023-05-12T01:24:02.054Z,934.61
2023-05-12T01:24:33.321Z,934.71
2023-05-12T01:25:05.416Z,934.71
2023-05-12T01:25:35.111Z,934.51
2023-05-12T01:26:06.476Z,934.51
2023-05-12T01:26:37.262Z,934.71
2023-05-12T01:27:08.324Z,934.51
2023-05-12T01:27:39.165Z,934.51
2023-05-12T01:28:10.333Z,934.51
2023-05-12T01:28:41.232Z,934.51
2023-05-12T01:29:12.576Z,934.61
2023-05-12T01:29:43.320Z,934.61
2023-05-12T01:30:18.384Z,934.61
2023-05-12T01:30:45.501Z,934.61
2023-05-12T01:31:17.119Z,934.71
2023-05-12T01:31:47.182Z,934.71
2023-05-12T01:32:18.312Z,934.71
2023-05-12T01:32:49.242Z,934.71
2023-05-12T01:33:19.954Z,934.71
2023-05-12T01:33:51.035Z,934.71
2023-05-12T01:34:22.285Z,934.71
2023-05-12T01:34:52.920Z,934.71
2023-05-12T01:35:25.279Z,934.71
2023-05-12T01:35:55.312Z,934.71
2023-05-12T01:36:26.390Z,934.81
2023-05-12T01:36:57.346Z,934.81
2023-05-12T01:37:28.506Z,934.61
2023-05-12T01:37:59.237Z,934.61
2023-05-12T01:38:30.576Z,934.71
2023-05-12T01:39:01.124Z,934.71
2023-05-12T01:39:32.178Z,934.71
2023-05-12T01:40:03.442Z,934.71
2023-05-12T01:40:35.958Z,934.81
2023-05-12T01:41:05.774Z,934.81
2023-05-12T01:41:36.606Z,934.81
2023-05-12T01:42:07.560Z,934.81
2023-05-12T01:42:37.878Z,935.01
2023-05-12T01:43:09.518Z,934.61
2023-05-12T01:43:40.049Z,934.61
2023-05-12T01:44:11.490Z,934.61
2023-05-12T01:44:42.711Z,934.61
2023-05-12T01:45:16.214Z,934.91
2023-05-12T01:45:45.262Z,934.91
2023-05-12T01:46:15.206Z,934.81
2023-05-12T01:46:46.479Z,934.81
2023-05-12T01:47:17.403Z,934.61
2023-05-12T01:47:48.432Z,934.61
2023-05-12T01:48:19.241Z,934.81
2023-05-12T01:48:50.435Z,934.81
2023-05-12T01:49:21.592Z,934.61
2023-05-12T01:49:52.623Z,934.61
2023-05-12T01:50:23.445Z,934.71
2023-05-12T01:50:55.426Z,934.71
2023-05-12T01:51:25.555Z,934.71
2023-05-12T01:51:56.781Z,934.71
2023-05-12T01:52:27.621Z,934.81
2023-05-12T01:52:58.146Z,934.81
2023-05-12T01:53:29.437Z,934.81
2023-05-12T01:54:00.281Z,934.81
2023-05-12T01:54:31.436Z,934.81
2023-05-12T01:55:02.188Z,934.81
2023-05-12T01:55:33.125Z,934.91
2023-05-12T01:56:05.584Z,934.91
2023-05-12T01:56:35.430Z,934.91
2023-05-12T01:57:06.132Z,934.91
2023-05-12T01:57:37.370Z,934.71
2023-05-12T01:58:08.983Z,934.91
2023-05-12T01:58:39.704Z,934.91
2023-05-12T01:59:10.202Z,934.81
2023-05-12T01:59:41.069Z,934.81
2023-05-12T02:00:15.365Z,934.81
2023-05-12T02:00:43.253Z,934.81
2023-05-12T02:01:15.378Z,934.71
2023-05-12T02:01:45.149Z,934.71
2023-05-12T02:02:16.123Z,934.91
2023-05-12T02:02:47.088Z,934.91
2023-05-12T02:03:18.256Z,934.91
2023-05-12T02:03:49.404Z,934.91
2023-05-12T02:04:20.366Z,934.81
2023-05-12T02:04:51.248Z,934.81
2023-05-12T02:05:22.391Z,934.81
2023-05-12T02:05:53.398Z,934.81
2023-05-12T02:06:25.611Z,935.01
2023-05-12T02:06:55.238Z,935.01
2023-05-12T02:07:26.045Z,934.81
2023-05-12T02:07:57.213Z,934.81
2023-05-12T02:08:28.801Z,934.61
2023-05-12T02:08:59.373Z,934.61
2023-05-12T02:09:30.284Z,934.91
2023-05-12T02:10:01.396Z,934.91
2023-05-12T02:10:32.569Z,934.81
2023-05-12T02:11:03.117Z,934.81
2023-05-12T02:11:34.826Z,934.91
2023-05-12T02:12:05.249Z,934.91
2023-05-12T02:12:36.395Z,934.91
2023-05-12T02:13:07.313Z,934.91
2023-05-12T02:13:38.207Z,934.91
2023-05-12T02:14:09.667Z,934.71
2023-05-12T02:14:40.401Z,934.71
2023-05-12T02:15:13.994Z,934.71
2023-05-12T02:15:42.363Z,934.71
2023-05-12T02:16:13.387Z,934.81
2023-05-12T02:16:45.275Z,934.81
2023-05-12T02:17:15.392Z,934.91
2023-05-12T02:17:47.443Z,934.91
2023-05-12T02:18:17.232Z,934.81
2023-05-12T02:18:48.401Z,934.81
2023-05-12T02:19:20.018Z,934.91
2023-05-12T02:19:50.052Z,934.91
2023-05-12T02:20:21.429Z,934.61
2023-05-12T02:20:52.210Z,934.61
2023-05-12T02:21:23.271Z,934.81
2023-05-12T02:21:55.568Z,934.81
2023-05-12T02:22:24.845Z,934.71
2023-05-12T02:22:56.351Z,934.71
2023-05-12T02:23:27.115Z,934.91
2023-05-12T02:23:58.366Z,934.91
2023-05-12T02:24:29.373Z,934.61
2023-05-12T02:25:00.227Z,934.61
2023-05-12T02:25:31.474Z,934.81
2023-05-12T02:26:01.979Z,934.81
2023-05-12T02:26:33.022Z,934.71
2023-05-12T02:27:05.340Z,934.71
2023-05-12T02:27:35.246Z,934.91
2023-05-12T02:28:06.070Z,934.91
2023-05-12T02:28:37.043Z,934.91
2023-05-12T02:29:08.531Z,934.71
2023-05-12T02:29:39.535Z,934.71
2023-05-12T02:30:13.718Z,934.71
2023-05-12T02:30:41.289Z,934.71
2023-05-12T02:31:12.261Z,934.91
2023-05-12T02:31:43.522Z,934.91
2023-05-12T02:32:15.528Z,934.91
2023-05-12T02:32:45.579Z,934.91
2023-05-12T02:33:16.448Z,934.71
2023-05-12T02:33:47.467Z,934.71
2023-05-12T02:34:18.105Z,934.81
2023-05-12T02:34:49.441Z,934.81
2023-05-12T02:35:20.118Z,934.91
2023-05-12T02:35:51.120Z,934.91
2023-05-12T02:36:22.047Z,934.81
2023-05-12T02:36:53.123Z,934.81
2023-05-12T02:37:25.530Z,934.81
2023-05-12T02:37:55.419Z,934.81
2023-05-12T02:38:26.282Z,934.71
2023-05-12T02:38:58.096Z,934.71
2023-05-12T02:39:28.686Z,934.91
2023-05-12T02:39:59.353Z,934.91
2023-05-12T02:40:30.427Z,934.81
2023-05-12T02:41:01.354Z,934.81
2023-05-12T02:41:32.453Z,934.81
2023-05-12T02:42:03.196Z,934.81
2023-05-12T02:42:35.204Z,934.71
2023-05-12T02:43:04.983Z,934.71
2023-05-12T02:43:36.213Z,934.71
2023-05-12T02:44:08.025Z,934.71
2023-05-12T02:44:38.426Z,934.71
2023-05-12T02:45:12.719Z,934.61
2023-05-12T02:45:40.046Z,934.61
2023-05-12T02:46:11.448Z,934.61
2023-05-12T02:46:42.642Z,934.61
2023-05-12T02:47:13.639Z,934.61
2023-05-12T02:47:47.562Z,934.61
2023-05-12T02:48:15.596Z,934.71
2023-05-12T02:48:46.820Z,934.71
2023-05-12T02:49:17.220Z,934.91
2023-05-12T02:49:48.187Z,934.91
2023-05-12T02:50:19.839Z,934.81
2023-05-12T02:50:50.421Z,934.81
2023-05-12T02:51:21.977Z,934.51
2023-05-12T02:51:52.452Z,934.51
2023-05-12T02:52:23.367Z,934.51
2023-05-12T02:52:55.668Z,934.51
2023-05-12T02:53:25.535Z,934.71
2023-05-12T02:53:56.313Z,934.71
2023-05-12T02:54:27.551Z,934.44
2023-05-12T02:54:58.506Z,934.44
2023-05-12T02:55:29.619Z,934.71
2023-05-12T02:56:00.322Z,934.71
2023-05-12T02:56:33.824Z,934.51
2023-05-12T02:57:02.389Z,934.51
2023-05-12T02:57:33.404Z,934.81
2023-05-12T02:58:05.718Z,934.81
2023-05-12T02:58:35.168Z,934.71
2023-05-12T02:59:06.904Z,934.71
2023-05-12T02:59:37.672Z,934.81
2023-05-12T03:00:11.470Z,934.61
2023-05-12T03:00:39.262Z,934.61
2023-05-12T03:01:11.710Z,934.71
2023-05-12T03:01:41.151Z,934.71
2023-05-12T03:02:12.352Z,934.61
2023-05-12T03:02:43.417Z,934.61
2023-05-12T03:03:15.222Z,934.71
2023-05-12T03:03:45.704Z,934.71
2023-05-12T03:04:18.106Z,934.61
2023-05-12T03:04:47.765Z,934.61
2023-05-12T03:05:18.034Z,934.51
2023-05-12T03:05:49.138Z,934.51
2023-05-12T03:06:20.116Z,934.71
2023-05-12T03:06:51.136Z,934.71
2023-05-12T03:07:22.421Z,934.71
2023-05-12T03:07:53.696Z,934.71
2023-05-12T03:08:25.482Z,934.61
2023-05-12T03:08:55.195Z,934.61
2023-05-12T03:09:26.143Z,934.81
2023-05-12T03:09:57.163Z,934.81
2023-05-12T03:10:28.337Z,934.51
2023-05-12T03:10:59.253Z,934.51
2023-05-12T03:11:29.940Z,934.71
2023-05-12T03:12:01.378Z,934.71
2023-05-12T03:12:32.446Z,934.81
2023-05-12T03:13:03.437Z,934.81
2023-05-12T03:13:35.194Z,934.61
2023-05-12T03:14:05.022Z,934.61
2023-05-12T03:14:36.519Z,934.81
2023-05-12T03:15:09.853Z,934.81
2023-05-12T03:15:38.461Z,934.71
2023-05-12T03:16:09.703Z,934.61
2023-05-12T03:16:39.942Z,934.61
2023-05-12T03:17:11.664Z,934.61
2023-05-12T03:17:43.409Z,934.61
2023-05-12T03:18:13.252Z,934.71
2023-05-12T03:18:45.754Z,934.71
2023-05-12T03:19:15.447Z,934.71
2023-05-12T03:19:46.110Z,934.71
2023-05-12T03:20:17.457Z,934.61
2023-05-12T03:20:47.939Z,934.61
2023-05-12T03:21:19.349Z,934.71
2023-05-12T03:21:50.130Z,934.71
2023-05-12T03:22:21.141Z,934.61
2023-05-12T03:22:52.071Z,934.61
2023-05-12T03:23:23.228Z,934.61
2023-05-12T03:23:55.628Z,934.61
2023-05-12T03:24:25.601Z,934.81
2023-05-12T03:24:56.365Z,934.81
2023-05-12T03:25:27.181Z,934.91
2023-05-12T03:25:58.586Z,934.91
2023-05-12T03:26:29.102Z,934.51
2023-05-12T03:27:00.518Z,934.51
2023-05-12T03:27:31.483Z,934.51
2023-05-12T03:28:02.012Z,934.51
2023-05-12T03:28:32.908Z,934.71
2023-05-12T03:29:05.318Z,934.71
2023-05-12T03:29:35.336Z,934.51
2023-05-12T03:30:09.471Z,934.51
2023-05-12T03:30:37.258Z,934.71
2023-05-12T03:31:08.370Z,934.71
2023-05-12T03:31:39.540Z,934.71
2023-05-12T03:32:10.436Z,934.81
2023-05-12T03:32:41.442Z,934.81
2023-05-12T03:33:12.370Z,934.61
2023-05-12T03:33:43.170Z,934.61
2023-05-12T03:34:15.596Z,934.51
2023-05-12T03:34:45.517Z,934.51
2023-05-12T03:35:16.037Z,934.61
2023-05-12T03:35:47.300Z,934.61
2023-05-12T03:36:18.099Z,934.71
2023-05-12T03:36:49.322Z,934.71
2023-05-12T03:37:20.743Z,934.61
2023-05-12T03:37:51.612Z,934.61
2023-05-12T03:38:22.412Z,934.71
2023-05-12T03:38:53.080Z,934.71
2023-05-12T03:39:26.079Z,934.61
2023-05-12T03:39:54.922Z,934.61
2023-05-12T03:40:26.484Z,934.71
2023-05-12T03:40:57.559Z,934.71
2023-05-12T03:41:28.530Z,934.51
2023-05-12T03:44:37.636Z,934.51
2023-05-12T03:45:08.170Z,934.51
2023-05-12T03:45:36.236Z,934.61
2023-05-12T03:46:07.165Z,934.61
2023-05-12T03:46:38.435Z,934.51
2023-05-12T03:47:09.394Z,934.61
2023-05-12T03:47:40.994Z,934.61
2023-05-12T03:48:12.292Z,934.61
2023-05-12T03:48:42.688Z,934.61
2023-05-12T03:49:13.511Z,934.51
2023-05-12T03:49:45.366Z,934.51
2023-05-12T03:50:15.444Z,934.44
2023-05-12T03:50:46.647Z,934.44
2023-05-12T03:51:17.441Z,934.61
2023-05-12T03:51:48.628Z,934.61
2023-05-12T03:52:19.924Z,934.51
2023-05-12T03:52:51.265Z,934.51
2023-05-12T03:53:21.588Z,934.61
2023-05-12T03:53:52.673Z,934.61
2023-05-12T03:54:23.586Z,934.61
2023-05-12T03:54:55.908Z,934.61
2023-05-12T03:55:25.760Z,934.51
2023-05-12T03:55:57.184Z,934.51
2023-05-12T03:56:27.636Z,934.44
2023-05-12T03:56:58.666Z,934.44
2023-05-12T03:57:29.824Z,934.61
2023-05-12T03:58:00.977Z,934.61
2023-05-12T03:58:31.645Z,934.61
2023-05-12T03:59:03.021Z,934.61
2023-05-12T03:59:33.645Z,934.61
2023-05-12T04:00:10.920Z,934.61
2023-05-12T04:00:35.494Z,934.44
2023-05-12T04:01:06.533Z,934.44
2023-05-12T04:01:37.912Z,934.51
2023-05-12T04:02:08.686Z,934.51
2023-05-12T04:02:39.656Z,934.51
2023-05-12T04:03:10.526Z,934.44
2023-05-12T04:03:41.736Z,934.44
2023-05-12T04:04:12.883Z,934.44
2023-05-12T04:04:43.218Z,934.44
2023-05-12T04:05:15.594Z,934.34
2023-05-12T04:05:45.611Z,934.34
2023-05-12T04:06:16.812Z,934.51
2023-05-12T04:06:47.611Z,934.51
2023-05-12T04:07:18.507Z,934.51
2023-05-12T04:07:50.002Z,934.51
2023-05-12T04:08:20.844Z,934.71
2023-05-12T04:08:52.158Z,934.71
2023-05-12T04:09:22.387Z,934.44
2023-05-12T04:09:53.515Z,934.44
2023-05-12T04:10:26.090Z,934.61
2023-05-12T04:10:55.651Z,934.61
2023-05-12T04:11:26.825Z,934.51
2023-05-12T04:11:57.475Z,934.51
2023-05-12T04:12:29.273Z,934.61
2023-05-12T04:12:59.400Z,934.61
2023-05-12T04:13:30.556Z,934.51
2023-05-12T04:14:01.397Z,934.51
2023-05-12T04:14:42.064Z,934.51
2023-05-12T04:15:06.386Z,934.51
2023-05-12T04:15:35.798Z,934.71
2023-05-12T04:16:05.607Z,934.71
2023-05-12T04:16:36.592Z,934.51
2023-05-12T04:17:07.668Z,934.51
2023-05-12T04:17:38.296Z,934.51
2023-05-12T04:18:10.097Z,934.44
2023-05-12T04:18:40.685Z,934.44
2023-05-12T04:19:11.726Z,934.51
2023-05-12T04:19:42.531Z,934.51
2023-05-12T04:20:13.703Z,934.44
2023-05-12T04:20:45.661Z,934.44
2023-05-12T04:21:15.845Z,934.71
2023-05-12T04:21:46.617Z,934.71
2023-05-12T04:22:17.717Z,934.44
2023-05-12T04:22:48.373Z,934.44
2023-05-12T04:23:19.697Z,934.44
2023-05-12T04:23:50.174Z,934.44
2023-05-12T04:24:21.602Z,934.51
2023-05-12T04:24:52.910Z,934.51
2023-05-12T04:25:24.700Z,934.51
2023-05-12T04:25:55.799Z,934.51
2023-05-12T04:26:25.817Z,934.61
2023-05-12T04:26:56.433Z,934.61
2023-05-12T04:27:27.541Z,934.61
2023-05-12T04:27:58.366Z,934.61
2023-05-12T04:28:29.393Z,934.61
2023-05-12T04:29:00.576Z,934.61
2023-05-12T04:29:31.610Z,934.61
2023-05-12T04:30:05.453Z,934.61
2023-05-12T04:30:33.439Z,934.24
2023-05-12T04:31:05.371Z,934.24
2023-05-12T04:31:35.323Z,934.51
2023-05-12T04:32:06.853Z,934.51
2023-05-12T04:32:37.222Z,934.71
2023-05-12T04:33:08.641Z,934.71
2023-05-12T04:33:39.586Z,934.71
2023-05-12T04:34:10.693Z,934.61
2023-05-12T04:34:41.563Z,934.61
2023-05-12T04:35:12.248Z,934.51
2023-05-12T04:35:43.651Z,934.51
2023-05-12T04:36:16.006Z,934.51
2023-05-12T04:36:45.715Z,934.51
2023-05-12T04:37:16.863Z,934.61
2023-05-12T04:37:47.441Z,934.61
2023-05-12T04:38:18.546Z,934.51
2023-05-12T04:38:49.572Z,934.51
2023-05-12T04:39:20.510Z,934.61
2023-05-12T04:39:51.726Z,934.61
2023-05-12T04:40:22.777Z,934.71
2023-05-12T04:40:53.761Z,934.71
2023-05-12T04:41:25.451Z,934.71
2023-05-12T04:41:55.856Z,934.71
2023-05-12T04:42:26.451Z,934.71
2023-05-12T04:42:57.539Z,934.71
2023-05-12T04:44:00.609Z,934.71
2023-05-12T04:44:30.491Z,934.51
2023-05-12T04:45:04.590Z,934.51
2023-05-12T04:45:32.718Z,934.51
2023-05-12T04:46:03.264Z,934.51
2023-05-12T04:46:35.288Z,934.71
2023-05-12T04:47:05.339Z,934.71
2023-05-12T04:47:36.524Z,934.71
2023-05-12T04:48:07.672Z,934.71
2023-05-12T04:48:38.677Z,934.61
2023-05-12T04:49:09.860Z,934.61
2023-05-12T04:49:40.796Z,934.61
2023-05-12T04:50:11.303Z,934.71
2023-05-12T04:50:42.828Z,934.71
2023-05-12T04:51:13.478Z,934.71
2023-05-12T04:51:45.377Z,934.71
2023-05-12T04:52:15.184Z,934.51
2023-05-12T04:52:46.210Z,934.51
2023-05-12T04:53:17.549Z,934.61
2023-05-12T04:53:48.453Z,934.61
2023-05-12T04:54:19.465Z,934.61
2023-05-12T04:54:50.359Z,934.61
2023-05-12T04:55:21.707Z,934.71
2023-05-12T04:55:52.404Z,934.71
2023-05-12T04:56:23.484Z,934.71
2023-05-12T04:56:55.760Z,934.71
2023-05-12T04:57:25.385Z,934.81
2023-05-12T04:57:56.973Z,934.81
2023-05-12T04:58:27.811Z,934.91
2023-05-12T04:58:58.752Z,934.91
2023-05-12T04:59:29.363Z,934.81
2023-05-12T05:00:03.837Z,934.81
2023-05-12T05:00:31.937Z,934.91
2023-05-12T05:01:02.909Z,934.91
2023-05-12T05:01:33.266Z,934.81
2023-05-12T05:02:05.410Z,934.81
2023-05-12T05:02:35.601Z,934.71
2023-05-12T05:03:06.691Z,934.71
2023-05-12T05:03:37.755Z,934.71
2023-05-12T05:04:08.672Z,934.71
2023-05-12T05:04:39.662Z,934.71
2023-05-12T05:05:10.704Z,934.71
2023-05-12T05:05:41.739Z,934.71
2023-05-12T05:06:12.836Z,934.81
2023-05-12T05:06:43.487Z,934.81
2023-05-12T05:07:15.770Z,934.91
2023-05-12T05:07:45.569Z,934.91
2023-05-12T05:08:16.824Z,934.81
2023-05-12T05:08:47.633Z,934.81
2023-05-12T05:09:18.573Z,934.81
2023-05-12T05:09:49.577Z,934.81
2023-05-12T05:10:20.246Z,934.91
2023-05-12T05:10:51.618Z,934.91
2023-05-12T05:11:22.279Z,934.81
2023-05-12T05:11:53.917Z,934.81
2023-05-12T05:12:25.532Z,934.71
2023-05-12T05:12:55.815Z,934.71
2023-05-12T05:13:26.659Z,935.01
2023-05-12T05:13:57.499Z,935.01
2023-05-12T05:14:28.423Z,935.01
2023-05-12T05:14:59.546Z,935.01
2023-05-12T05:15:33.847Z,935.01
2023-05-12T05:16:02.045Z,935.01
2023-05-12T05:16:32.924Z,934.81
2023-05-12T05:17:03.964Z,934.81
2023-05-12T05:17:35.807Z,934.81
2023-05-12T05:18:05.944Z,934.81
2023-05-12T05:18:36.794Z,934.91
2023-05-12T05:19:15.614Z,934.91
2023-05-12T05:19:53.678Z,934.71
2023-05-12T05:20:11.667Z,935.01
2023-05-12T05:20:45.185Z,935.01
2023-05-12T05:21:12.179Z,934.91
2023-05-12T05:21:42.897Z,934.91
2023-05-12T05:22:13.974Z,934.81
2023-05-12T05:22:45.972Z,934.81
2023-05-12T05:23:16.283Z,935.01
2023-05-12T05:23:47.806Z,935.01
2023-05-12T05:24:18.206Z,934.71
2023-05-12T05:24:49.389Z,934.71
2023-05-12T05:25:20.501Z,934.91
2023-05-12T05:25:51.214Z,934.91
2023-05-12T05:26:21.940Z,934.91
2023-05-12T05:26:53.065Z,934.91
2023-05-12T05:27:23.727Z,934.81
2023-05-12T05:27:55.620Z,934.81
2023-05-12T05:28:26.015Z,934.91
2023-05-12T05:28:56.600Z,934.91
2023-05-12T05:29:27.949Z,935.12
2023-05-12T05:29:59.023Z,935.12
2023-05-12T05:30:32.928Z,934.91
2023-05-12T05:31:01.643Z,934.91
2023-05-12T05:31:31.596Z,935.01
2023-05-12T05:32:03.141Z,935.01
2023-05-12T05:32:33.914Z,934.61
2023-05-12T05:33:05.703Z,934.61
2023-05-12T05:33:35.857Z,934.81
2023-05-12T05:34:06.796Z,934.81
2023-05-12T05:34:38.196Z,935.01
2023-05-12T05:35:09.926Z,935.01
2023-05-12T05:35:39.764Z,935.01
2023-05-12T05:36:10.729Z,935.01
2023-05-12T05:36:42.063Z,935.01
2023-05-12T05:37:12.934Z,934.91
2023-05-12T05:37:43.708Z,934.91
2023-05-12T05:38:15.976Z,934.91
2023-05-12T05:38:45.797Z,934.91
2023-05-12T05:39:17.148Z,935.01
2023-05-12T05:39:47.638Z,935.01
2023-05-12T05:40:18.970Z,934.91
2023-05-12T05:40:54.197Z,934.91
2023-05-12T05:41:23.400Z,934.91
2023-05-12T05:41:51.609Z,934.91
2023-05-12T05:42:22.814Z,935.01
2023-05-12T05:42:53.881Z,935.01
2023-05-12T05:43:26.244Z,934.81
2023-05-12T05:43:55.901Z,934.81
2023-05-12T05:44:27.002Z,935.01
2023-05-12T05:44:57.824Z,935.01
2023-05-12T05:45:31.852Z,934.91
2023-05-12T05:45:59.944Z,934.91
2023-05-12T05:46:32.098Z,934.81
2023-05-12T05:47:02.123Z,934.81
2023-05-12T05:47:32.781Z,935.01
2023-05-12T05:48:04.538Z,935.01
2023-05-12T05:48:35.981Z,934.91
2023-05-12T05:49:05.701Z,934.91
2023-05-12T05:49:37.444Z,934.91
2023-05-12T05:50:08.793Z,934.91
2023-05-12T05:50:39.347Z,934.91
2023-05-12T05:51:09.740Z,934.91
2023-05-12T05:51:40.715Z,934.91
2023-05-12T05:52:11.852Z,934.81
2023-05-12T05:52:42.926Z,934.81
2023-05-12T05:53:13.828Z,934.91
2023-05-12T05:53:45.777Z,934.91
2023-05-12T05:54:15.867Z,934.81
2023-05-12T05:54:47.612Z,934.81
2023-05-12T05:55:19.130Z,934.71
2023-05-12T05:55:48.592Z,934.71
2023-05-12T05:56:20.513Z,934.91
2023-05-12T05:56:50.858Z,934.91
2023-05-12T05:57:21.835Z,934.91
2023-05-12T05:57:52.720Z,934.91
2023-05-12T05:58:23.635Z,934.81
2023-05-12T05:58:56.216Z,934.81
2023-05-12T05:59:26.038Z,934.91
2023-05-12T05:59:56.497Z,934.91
2023-05-12T06:00:30.870Z,934.91
2023-05-12T06:00:58.769Z,934.91
2023-05-12T06:01:29.883Z,935.12
2023-05-12T06:02:00.810Z,935.12
2023-05-12T06:02:32.162Z,934.91
2023-05-12T06:03:03.904Z,934.91
2023-05-12T06:03:33.723Z,935.12
2023-05-12T06:04:05.931Z,935.12
2023-05-12T06:04:35.852Z,934.81
2023-05-12T06:05:07.181Z,934.81
2023-05-12T06:05:37.852Z,934.81
2023-05-12T06:06:09.037Z,935.12
2023-05-12T06:06:39.990Z,935.12
2023-05-12T06:07:11.310Z,935.01
2023-05-12T06:07:42.121Z,935.01
2023-05-12T06:08:13.638Z,935.12
2023-05-12T06:08:43.902Z,935.12
2023-05-12T06:09:15.984Z,935.12
2023-05-12T06:09:46.174Z,935.12
2023-05-12T06:10:16.837Z,934.91
2023-05-12T06:10:47.997Z,934.91
2023-05-12T06:11:18.873Z,934.81
2023-05-12T06:11:50.039Z,934.81
2023-05-12T06:12:21.190Z,934.91
2023-05-12T06:12:51.937Z,934.91
2023-05-12T06:13:22.910Z,935.01
2023-05-12T06:13:53.727Z,935.01
2023-05-12T06:14:25.653Z,934.91
2023-05-12T06:14:56.547Z,934.91
2023-05-12T06:15:30.417Z,935.12
2023-05-12T06:15:57.917Z,935.12
2023-05-12T06:16:28.910Z,935.01
2023-05-12T06:17:00.383Z,935.01
2023-05-12T06:17:32.676Z,935.12
2023-05-12T06:18:02.862Z,935.12
2023-05-12T06:18:33.215Z,935.01
2023-05-12T06:19:03.900Z,935.01
2023-05-12T06:19:35.600Z,934.71
2023-05-12T06:20:06.383Z,934.71
2023-05-12T06:20:37.032Z,935.01
2023-05-12T06:21:08.216Z,935.01
2023-05-12T06:21:38.907Z,935.01
2023-05-12T06:22:10.134Z,935.01
2023-05-12T06:22:41.069Z,935.01
2023-05-12T06:23:12.578Z,935.01
2023-05-12T06:23:43.065Z,935.01
2023-05-12T06:24:13.202Z,935.22
2023-05-12T06:24:45.953Z,935.22
2023-05-12T06:25:16.127Z,935.12
2023-05-12T06:25:46.998Z,935.12
2023-05-12T06:26:17.911Z,935.01
2023-05-12T06:26:48.538Z,935.01
2023-05-12T06:27:19.732Z,934.91
2023-05-12T06:27:51.330Z,934.91
2023-05-12T06:28:21.931Z,934.91
2023-05-12T06:28:53.137Z,934.91
2023-05-12T06:29:23.896Z,935.01
2023-05-12T06:29:56.059Z,935.01
2023-05-12T06:30:28.652Z,934.91